createdAt,value
2022-10-30T00:02:39.505Z,89.91
2022-10-30T00:06:07.452Z,90.21
2022-10-30T00:09:32.083Z,89.55
2022-10-30T00:12:56.448Z,89.79
2022-10-30T00:16:18.038Z,89.92
2022-10-30T00:19:41.852Z,89.52
2022-10-30T00:23:03.383Z,89.17
2022-10-30T00:26:28.279Z,89.73
2022-10-30T00:29:51.880Z,89.97
2022-10-30T00:33:13.400Z,90.55
2022-10-30T00:36:34.897Z,90.05
2022-10-30T00:39:56.464Z,91.19
2022-10-30T00:43:32.524Z,91.06
2022-10-30T00:46:54.552Z,90.94
2022-10-30T00:50:18.974Z,90.84
2022-10-30T00:53:44.962Z,91.36
2022-10-30T00:57:10.614Z,91.42
2022-10-30T01:00:32.189Z,90.75
2022-10-30T01:03:57.916Z,90.25
2022-10-30T01:07:21.797Z,89.95
2022-10-30T01:10:43.772Z,90.10
2022-10-30T01:14:08.477Z,89.92
2022-10-30T01:17:30.735Z,90.48
2022-10-30T01:20:55.335Z,90.64
2022-10-30T01:24:27.941Z,92.00
2022-10-30T01:28:17.651Z,92.33
2022-10-30T01:32:02.331Z,92.01
2022-10-30T01:35:36.362Z,91.22
2022-10-30T01:39:08.557Z,90.49
2022-10-30T01:42:48.396Z,90.06
2022-10-30T01:47:02.315Z,89.67
2022-10-30T01:50:46.153Z,89.33
2022-10-30T01:54:13.809Z,89.35
2022-10-30T01:57:48.291Z,89.43
2022-10-30T02:01:12.838Z,89.58
2022-10-30T02:04:37.435Z,89.61
2022-10-30T02:08:01.950Z,89.44
2022-10-30T02:11:27.547Z,88.57
2022-10-30T02:14:58.891Z,89.22
2022-10-30T02:18:22.775Z,89.24
2022-10-30T02:21:44.300Z,88.28
2022-10-30T02:25:06.346Z,88.96
2022-10-30T02:28:27.854Z,88.88
2022-10-30T02:31:50.106Z,88.39
2022-10-30T02:35:11.726Z,89.01
2022-10-30T02:38:33.265Z,88.98
2022-10-30T02:41:58.232Z,88.64
2022-10-30T02:45:20.145Z,88.43
2022-10-30T02:48:43.709Z,88.42
2022-10-30T02:52:11.498Z,88.32
2022-10-30T02:55:35.422Z,88.65
2022-10-30T02:58:57.010Z,88.41
2022-10-30T03:02:19.426Z,88.02
2022-10-30T03:05:41.074Z,87.96
2022-10-30T03:09:02.635Z,87.76
2022-10-30T03:12:26.662Z,87.87
2022-10-30T03:15:48.171Z,87.72
2022-10-30T03:19:11.786Z,87.57
2022-10-30T03:22:33.314Z,87.58
2022-10-30T03:25:56.298Z,86.79
2022-10-30T03:29:20.046Z,87.38
2022-10-30T03:32:44.349Z,87.92
2022-10-30T03:36:10.080Z,88.08
2022-10-30T03:39:33.840Z,87.82
2022-10-30T03:42:55.715Z,87.55
2022-10-30T03:46:19.732Z,87.55
2022-10-30T03:49:41.275Z,87.51
2022-10-30T03:53:03.551Z,87.31
2022-10-30T03:56:27.609Z,87.40
2022-10-30T03:59:49.139Z,86.98
2022-10-30T04:03:10.899Z,87.19
2022-10-30T04:06:32.435Z,87.03
2022-10-30T04:09:53.935Z,87.53
2022-10-30T04:13:17.230Z,87.58
2022-10-30T04:16:38.794Z,87.58
2022-10-30T04:20:03.281Z,87.58
2022-10-30T04:23:24.870Z,87.00
2022-10-30T04:26:46.404Z,87.41
2022-10-30T04:30:09.807Z,87.12
2022-10-30T04:33:31.578Z,87.12
2022-10-30T04:36:53.109Z,87.15
2022-10-30T04:40:14.653Z,87.30
2022-10-30T04:43:36.178Z,87.55
2022-10-30T04:46:57.875Z,87.26
2022-10-30T04:50:24.224Z,87.36
2022-10-30T04:53:45.790Z,87.20
2022-10-30T04:57:07.655Z,87.27
2022-10-30T05:00:29.802Z,87.09
2022-10-30T05:03:54.699Z,87.27
2022-10-30T05:07:17.645Z,87.22
2022-10-30T05:10:40.727Z,87.36
2022-10-30T05:14:02.541Z,87.15
2022-10-30T05:17:26.428Z,87.08
2022-10-30T05:20:48.149Z,86.97
2022-10-30T05:24:09.774Z,87.56
2022-10-30T05:27:34.305Z,87.12
2022-10-30T05:30:55.865Z,87.69
2022-10-30T05:34:17.711Z,87.67
2022-10-30T05:37:42.641Z,87.43
2022-10-30T05:41:06.250Z,87.09
2022-10-30T05:44:58.559Z,87.50
2022-10-30T05:48:17.071Z,87.40
2022-10-30T05:51:40.628Z,87.01
2022-10-30T05:55:04.848Z,87.66
2022-10-30T05:58:26.348Z,87.78
2022-10-30T06:01:47.904Z,87.82
2022-10-30T06:05:09.491Z,87.50
2022-10-30T06:08:36.644Z,87.57
2022-10-30T06:11:58.731Z,87.75
2022-10-30T06:15:23.699Z,87.51
2022-10-30T06:18:45.233Z,87.65
2022-10-30T06:22:06.788Z,87.70
2022-10-30T06:25:30.230Z,87.99
2022-10-30T06:28:51.781Z,87.93
2022-10-30T06:32:15.750Z,87.97
2022-10-30T06:35:39.694Z,88.01
2022-10-30T06:39:03.837Z,88.09
2022-10-30T06:42:30.484Z,87.82
2022-10-30T06:45:52.097Z,87.84
2022-10-30T06:49:13.837Z,87.89
2022-10-30T06:52:37.978Z,87.81
2022-10-30T06:56:01.765Z,87.82
2022-10-30T06:59:27.945Z,87.50
2022-10-30T07:03:04.610Z,86.86
2022-10-30T07:06:28.618Z,87.31
2022-10-30T07:09:55.019Z,88.40
2022-10-30T07:13:17.214Z,88.19
2022-10-30T07:16:38.737Z,87.75
2022-10-30T07:20:00.234Z,86.72
2022-10-30T07:23:22.034Z,85.78
2022-10-30T07:26:43.546Z,86.54
2022-10-30T07:30:05.589Z,86.81
2022-10-30T07:33:27.261Z,86.77
2022-10-30T07:36:49.051Z,86.83
2022-10-30T07:40:13.642Z,87.03
2022-10-30T07:43:35.207Z,94.50
2022-10-30T07:46:58.930Z,90.24
2022-10-30T07:50:20.724Z,87.25
2022-10-30T07:53:44.681Z,85.65
2022-10-30T07:57:06.205Z,85.23
2022-10-30T08:00:27.809Z,83.98
2022-10-30T08:03:52.097Z,81.31
2022-10-30T08:07:13.662Z,81.47
2022-10-30T08:10:39.079Z,84.40
2022-10-30T08:14:00.930Z,85.82
2022-10-30T08:17:23.863Z,86.75
2022-10-30T08:20:50.503Z,87.42
2022-10-30T08:24:15.075Z,87.34
2022-10-30T08:27:36.622Z,87.87
2022-10-30T08:30:59.202Z,88.36
2022-10-30T08:34:23.382Z,88.04
2022-10-30T08:37:45.167Z,86.69
2022-10-30T08:41:06.741Z,86.78
2022-10-30T08:44:28.571Z,86.11
2022-10-30T08:47:58.013Z,85.95
2022-10-30T08:51:24.534Z,86.65
2022-10-30T08:54:46.130Z,87.00
2022-10-30T08:58:07.680Z,86.03
2022-10-30T09:01:29.334Z,87.60
2022-10-30T09:04:50.994Z,86.98
2022-10-30T09:08:12.526Z,86.11
2022-10-30T09:11:34.134Z,86.84
2022-10-30T09:14:55.681Z,86.69
2022-10-30T09:18:17.648Z,86.43
2022-10-30T09:21:39.226Z,86.04
2022-10-30T09:25:00.787Z,85.89
2022-10-30T09:28:22.274Z,85.00
2022-10-30T09:31:46.127Z,84.00
2022-10-30T09:35:10.269Z,83.92
2022-10-30T09:38:31.991Z,84.80
2022-10-30T09:41:56.473Z,85.05
2022-10-30T09:45:54.066Z,85.29
2022-10-30T09:49:44.445Z,85.71
2022-10-30T09:53:05.923Z,85.12
2022-10-30T09:56:32.541Z,86.19
2022-10-30T10:00:08.665Z,85.12
2022-10-30T10:03:42.392Z,84.61
2022-10-30T10:07:23.616Z,84.06
2022-10-30T10:10:50.257Z,84.39
2022-10-30T10:14:23.573Z,84.87
2022-10-30T10:17:49.340Z,84.25
2022-10-30T10:21:22.757Z,83.14
2022-10-30T10:24:49.069Z,84.27
2022-10-30T10:28:23.682Z,84.39
2022-10-30T10:32:17.712Z,83.36
2022-10-30T10:35:49.000Z,82.95
2022-10-30T10:39:18.963Z,81.99
2022-10-30T10:42:59.965Z,83.12
2022-10-30T10:46:24.460Z,83.97
2022-10-30T10:49:57.939Z,82.43
2022-10-30T10:53:43.328Z,83.65
2022-10-30T10:57:07.801Z,83.14
2022-10-30T11:00:32.426Z,83.04
2022-10-30T11:04:24.952Z,83.54
2022-10-30T11:07:50.945Z,83.23
2022-10-30T11:11:14.831Z,83.85
2022-10-30T11:14:41.526Z,82.81
2022-10-30T11:21:40.391Z,83.28
2022-10-30T11:25:26.994Z,83.00
2022-10-30T11:28:59.980Z,82.46
2022-10-30T11:32:26.483Z,82.43
2022-10-30T11:35:47.999Z,81.87
2022-10-30T11:39:19.361Z,81.72
2022-10-30T11:42:47.581Z,80.94
2022-10-30T11:46:11.932Z,80.64
2022-10-30T11:49:40.778Z,82.41
2022-10-30T11:53:30.365Z,81.43
2022-10-30T11:56:52.272Z,81.96
2022-10-30T12:00:20.814Z,82.67
2022-10-30T12:03:42.227Z,82.25
2022-10-30T12:07:13.891Z,80.85
2022-10-30T12:10:44.062Z,80.84
2022-10-30T12:14:06.053Z,79.05
2022-10-30T12:17:30.077Z,79.56
2022-10-30T12:21:01.049Z,80.96
2022-10-30T12:24:39.145Z,81.38
2022-10-30T12:28:00.708Z,80.31
2022-10-30T12:31:31.576Z,81.36
2022-10-30T12:35:15.147Z,85.44
2022-10-30T12:38:42.659Z,83.83
2022-10-30T12:42:23.960Z,81.44
2022-10-30T12:45:48.993Z,80.52
2022-10-30T12:49:17.815Z,80.07
2022-10-30T12:52:47.236Z,74.55
2022-10-30T12:56:39.615Z,75.63
2022-10-30T13:00:13.703Z,76.41
2022-10-30T13:03:41.427Z,77.54
2022-10-30T13:07:30.336Z,78.74
2022-10-30T13:11:14.737Z,78.72
2022-10-30T13:14:45.159Z,80.74
2022-10-30T13:18:24.171Z,80.45
2022-10-30T13:21:59.328Z,80.14
2022-10-30T13:25:39.933Z,81.05
2022-10-30T13:29:20.075Z,80.65
2022-10-30T13:32:44.591Z,80.41
2022-10-30T13:36:14.438Z,79.45
2022-10-30T13:40:02.456Z,80.47
2022-10-30T13:44:07.110Z,79.76
2022-10-30T13:47:35.888Z,79.89
2022-10-30T13:51:22.844Z,79.92
2022-10-30T13:55:17.971Z,79.47
2022-10-30T13:59:28.636Z,79.87
2022-10-30T14:03:02.819Z,79.96
2022-10-30T14:06:29.503Z,80.43
2022-10-30T14:10:02.532Z,80.47
2022-10-30T14:13:31.435Z,80.15
2022-10-30T14:17:22.458Z,81.21
2022-10-30T14:20:55.675Z,80.45
2022-10-30T14:24:23.612Z,81.36
2022-10-30T14:27:55.876Z,82.02
2022-10-30T14:31:20.129Z,81.89
2022-10-30T14:34:50.707Z,81.46
2022-10-30T14:38:12.203Z,81.90
2022-10-30T14:41:46.042Z,82.14
2022-10-30T14:45:36.522Z,82.09
2022-10-30T14:49:16.290Z,81.57
2022-10-30T14:53:00.259Z,81.66
2022-10-30T14:56:48.265Z,84.84
2022-10-30T15:00:25.890Z,87.16
2022-10-30T15:03:47.374Z,85.44
2022-10-30T15:07:27.748Z,83.49
2022-10-30T15:11:07.212Z,83.01
2022-10-30T15:14:54.110Z,77.23
2022-10-30T15:18:19.466Z,78.23
2022-10-30T15:21:51.308Z,78.53
2022-10-30T15:25:20.344Z,80.20
2022-10-30T15:28:41.925Z,80.61
2022-10-30T15:32:17.601Z,81.42
2022-10-30T15:35:47.476Z,81.31
2022-10-30T15:39:17.477Z,81.87
2022-10-30T15:42:41.750Z,82.88
2022-10-30T15:46:10.130Z,82.60
2022-10-30T15:49:31.639Z,82.69
2022-10-30T15:52:55.990Z,86.26
2022-10-30T15:56:20.111Z,89.05
2022-10-30T15:59:50.983Z,86.21
2022-10-30T16:03:12.647Z,85.04
2022-10-30T16:06:34.157Z,83.80
2022-10-30T16:09:56.871Z,77.76
2022-10-30T16:13:27.772Z,77.84
2022-10-30T16:16:49.615Z,79.02
2022-10-30T16:20:12.296Z,80.33
2022-10-30T16:23:52.076Z,80.99
2022-10-30T16:27:15.813Z,81.74
2022-10-30T16:30:42.179Z,82.21
2022-10-30T16:34:12.297Z,82.15
2022-10-30T16:37:39.338Z,82.81
2022-10-30T16:41:01.342Z,82.73
2022-10-30T16:44:33.783Z,83.24
2022-10-30T16:48:09.156Z,83.60
2022-10-30T16:51:31.394Z,83.77
2022-10-30T16:55:07.515Z,83.64
2022-10-30T16:58:34.515Z,84.06
2022-10-30T17:02:05.836Z,83.98
2022-10-30T17:05:33.942Z,84.09
2022-10-30T17:09:00.239Z,84.34
2022-10-30T17:12:33.124Z,84.40
2022-10-30T17:15:57.532Z,84.15
2022-10-30T17:19:31.530Z,84.42
2022-10-30T17:23:17.882Z,84.60
2022-10-30T17:26:39.478Z,84.47
2022-10-30T17:30:25.071Z,84.66
2022-10-30T17:33:48.017Z,85.62
2022-10-30T17:37:12.007Z,90.08
2022-10-30T17:40:33.545Z,87.71
2022-10-30T17:43:56.603Z,86.62
2022-10-30T17:47:24.231Z,84.97
2022-10-30T17:50:45.775Z,83.97
2022-10-30T17:54:13.426Z,78.71
2022-10-30T17:57:34.934Z,79.86
2022-10-30T18:00:59.726Z,80.62
2022-10-30T18:04:23.715Z,80.99
2022-10-30T18:07:45.727Z,82.32
2022-10-30T18:11:14.099Z,82.94
2022-10-30T18:14:36.696Z,82.80
2022-10-30T18:17:58.346Z,83.30
2022-10-30T18:21:24.668Z,83.52
2022-10-30T18:24:50.723Z,83.60
2022-10-30T18:28:14.129Z,83.57
2022-10-30T18:31:39.137Z,84.31
2022-10-30T18:35:02.905Z,84.40
2022-10-30T18:38:26.514Z,84.43
2022-10-30T18:41:50.588Z,84.43
2022-10-30T18:45:25.500Z,84.40
2022-10-30T18:48:49.758Z,85.19
2022-10-30T18:52:13.969Z,85.65
2022-10-30T18:55:40.449Z,86.13
2022-10-30T18:59:02.659Z,83.33
2022-10-30T19:02:29.124Z,83.55
2022-10-30T19:05:51.548Z,84.45
2022-10-30T19:09:15.527Z,84.68
2022-10-30T19:12:51.537Z,84.70
2022-10-30T19:16:25.423Z,85.32
2022-10-30T19:19:47.151Z,85.17
2022-10-30T19:23:40.099Z,84.70
2022-10-30T19:27:01.630Z,85.30
2022-10-30T19:30:24.103Z,85.73
2022-10-30T19:33:53.153Z,86.22
2022-10-30T19:37:20.715Z,85.87
2022-10-30T19:40:46.180Z,85.70
2022-10-30T19:44:08.075Z,85.39
2022-10-30T19:47:35.305Z,85.27
2022-10-30T19:50:59.584Z,85.03
2022-10-30T19:54:23.316Z,85.16
2022-10-30T19:57:44.905Z,85.45
2022-10-30T20:01:11.180Z,85.27
2022-10-30T20:04:35.527Z,85.08
2022-10-30T20:08:03.491Z,84.69
2022-10-30T20:11:25.123Z,84.58
2022-10-30T20:14:46.616Z,84.49
2022-10-30T20:18:25.250Z,85.19
2022-10-30T20:21:46.754Z,84.87
2022-10-30T20:25:09.136Z,85.15
2022-10-30T20:28:39.859Z,84.96
2022-10-30T20:32:04.911Z,85.02
2022-10-30T20:35:26.428Z,84.82
2022-10-30T20:38:47.924Z,84.99
2022-10-30T20:42:12.946Z,85.53
2022-10-30T20:45:34.468Z,86.49
2022-10-30T20:48:56.402Z,85.98
2022-10-30T20:52:17.925Z,85.71
2022-10-30T20:55:40.811Z,85.45
2022-10-30T20:59:02.761Z,85.39
2022-10-30T21:02:26.839Z,85.22
2022-10-30T21:05:55.765Z,85.28
2022-10-30T21:09:17.378Z,85.37
2022-10-30T21:12:42.139Z,85.27
2022-10-30T21:16:06.704Z,85.77
2022-10-30T21:19:28.226Z,86.40
2022-10-30T21:22:52.167Z,86.04
2022-10-30T21:26:14.380Z,85.54
2022-10-30T21:29:35.910Z,86.01
2022-10-30T21:32:58.842Z,86.03
2022-10-30T21:36:24.745Z,85.40
2022-10-30T21:39:49.468Z,86.40
2022-10-30T21:43:11.474Z,86.04
2022-10-30T21:46:33.290Z,86.10
2022-10-30T21:49:54.798Z,85.68
2022-10-30T21:53:16.327Z,86.27
2022-10-30T21:56:37.947Z,85.84
2022-10-30T22:00:01.798Z,86.51
2022-10-30T22:03:27.277Z,87.24
2022-10-30T22:06:51.272Z,87.00
2022-10-30T22:10:12.771Z,87.56
2022-10-30T22:13:35.411Z,87.16
2022-10-30T22:17:01.519Z,86.74
2022-10-30T22:20:23.042Z,87.31
2022-10-30T22:23:49.532Z,87.55
2022-10-30T22:27:11.070Z,87.55
2022-10-30T22:30:32.671Z,87.32
2022-10-30T22:33:58.461Z,86.82
2022-10-30T22:37:22.703Z,86.35
2022-10-30T22:40:44.235Z,86.90
2022-10-30T22:44:12.922Z,86.51
2022-10-30T22:47:34.446Z,86.19
2022-10-30T22:50:57.964Z,87.27
2022-10-30T22:54:21.756Z,87.38
2022-10-30T22:57:43.306Z,86.97
2022-10-30T23:01:13.420Z,87.32
2022-10-30T23:04:39.700Z,86.57
2022-10-30T23:08:03.905Z,87.11
2022-10-30T23:11:26.527Z,87.08
2022-10-30T23:14:48.169Z,87.36
2022-10-30T23:18:09.662Z,87.10
2022-10-30T23:21:35.720Z,86.47
2022-10-30T23:24:59.542Z,87.10
2022-10-30T23:28:23.647Z,87.30
2022-10-30T23:31:46.265Z,87.70
2022-10-30T23:35:08.544Z,87.80
2022-10-30T23:38:30.504Z,88.01
2022-10-30T23:41:54.328Z,88.27
2022-10-30T23:45:15.844Z,88.14
2022-10-30T23:48:37.410Z,87.41
2022-10-30T23:51:58.928Z,87.72
2022-10-30T23:55:20.478Z,88.17
2022-10-30T23:58:56.357Z,88.40
